Gunnison, Colorado
Current Conditions -  °F | °C
As of 2:15 PM on Sunday 23 Nov 2014 (Local Time) from KGUC Reporting Station
Broken Clouds Broken Clouds  
Wind Chill: 16°   Ceiling: 8500
Heat Index: 27°   Visibility: 10mi
Dew Point: 16°   Wind: 13mph
Humidity: 64%   Direction: 230°SW
Pressure: 29.89"   Gusts: NA
Location:  38.55°N, 106.92°W
Report Text: KGUC 232115Z AUTO 23011KT 10SM FEW016 SCT075 BKN085 M03/M09 A2989 RMK AO1
Loading
Personal Weather Stations






























Interactive Weather Map New forecast layout! Learn more

10-Day Weather Forecast

Advertisements
Track Severe Weather on mobile